sensor_id;sensor_type;location;lat;lon;timestamp;P1;durP1;ratioP1;P2;durP2;ratioP2
69523;SDS011;56723;42.694;23.286;2022-07-10T00:00:50;18.60;;;16.90;;
69523;SDS011;56723;42.694;23.286;2022-07-10T00:03:17;18.52;;;16.73;;
69523;SDS011;56723;42.694;23.286;2022-07-10T00:05:44;17.65;;;16.02;;
69523;SDS011;56723;42.694;23.286;2022-07-10T00:08:11;19.98;;;18.05;;
69523;SDS011;56723;42.694;23.286;2022-07-10T00:10:38;16.65;;;15.05;;
69523;SDS011;56723;42.694;23.286;2022-07-10T00:13:05;16.85;;;15.25;;
69523;SDS011;56723;42.694;23.286;2022-07-10T00:15:32;18.20;;;16.50;;
69523;SDS011;56723;42.694;23.286;2022-07-10T00:18:00;18.50;;;16.60;;
69523;SDS011;56723;42.694;23.286;2022-07-10T00:20:27;15.73;;;14.07;;
69523;SDS011;56723;42.694;23.286;2022-07-10T00:22:54;16.42;;;14.82;;
69523;SDS011;56723;42.694;23.286;2022-07-10T00:25:27;17.88;;;16.27;;
69523;SDS011;56723;42.694;23.286;2022-07-10T00:27:55;17.70;;;16.02;;
69523;SDS011;56723;42.694;23.286;2022-07-10T00:30:22;17.33;;;15.77;;
69523;SDS011;56723;42.694;23.286;2022-07-10T00:32:50;17.98;;;16.27;;
69523;SDS011;56723;42.694;23.286;2022-07-10T00:35:17;17.92;;;16.05;;
69523;SDS011;56723;42.694;23.286;2022-07-10T00:37:44;17.58;;;15.88;;
69523;SDS011;56723;42.694;23.286;2022-07-10T00:40:11;22.23;;;20.17;;
69523;SDS011;56723;42.694;23.286;2022-07-10T00:42:38;45.65;;;41.15;;
69523;SDS011;56723;42.694;23.286;2022-07-10T00:45:05;38.90;;;35.13;;
69523;SDS011;56723;42.694;23.286;2022-07-10T00:47:33;28.58;;;25.80;;
69523;SDS011;56723;42.694;23.286;2022-07-10T00:50:00;26.77;;;23.83;;
69523;SDS011;56723;42.694;23.286;2022-07-10T00:52:27;22.95;;;20.58;;
69523;SDS011;56723;42.694;23.286;2022-07-10T00:54:54;20.42;;;18.30;;
69523;SDS011;56723;42.694;23.286;2022-07-10T00:57:21;17.80;;;15.90;;
69523;SDS011;56723;42.694;23.286;2022-07-10T00:59:49;17.70;;;15.88;;
69523;SDS011;56723;42.694;23.286;2022-07-10T01:02:16;17.45;;;15.73;;
69523;SDS011;56723;42.694;23.286;2022-07-10T01:04:44;16.40;;;14.90;;
69523;SDS011;56723;42.694;23.286;2022-07-10T01:07:11;17.25;;;15.68;;
69523;SDS011;56723;42.694;23.286;2022-07-10T01:09:38;16.67;;;15.10;;
69523;SDS011;56723;42.694;23.286;2022-07-10T01:12:05;15.73;;;14.32;;
69523;SDS011;56723;42.694;23.286;2022-07-10T01:14:33;16.30;;;14.60;;
69523;SDS011;56723;42.694;23.286;2022-07-10T01:17:02;16.85;;;15.18;;
69523;SDS011;56723;42.694;23.286;2022-07-10T01:19:31;17.17;;;15.52;;
69523;SDS011;56723;42.694;23.286;2022-07-10T01:21:58;16.90;;;15.13;;
69523;SDS011;56723;42.694;23.286;2022-07-10T01:24:25;18.98;;;15.80;;
69523;SDS011;56723;42.694;23.286;2022-07-10T01:26:52;15.93;;;14.40;;
69523;SDS011;56723;42.694;23.286;2022-07-10T01:29:19;18.02;;;16.15;;
69523;SDS011;56723;42.694;23.286;2022-07-10T01:34:22;15.88;;;14.38;;
69523;SDS011;56723;42.694;23.286;2022-07-10T01:36:49;15.90;;;14.27;;
69523;SDS011;56723;42.694;23.286;2022-07-10T01:39:16;18.20;;;16.50;;
69523;SDS011;56723;42.694;23.286;2022-07-10T01:41:42;17.58;;;15.77;;
69523;SDS011;56723;42.694;23.286;2022-07-10T01:44:09;16.38;;;14.57;;
69523;SDS011;56723;42.694;23.286;2022-07-10T01:46:43;15.57;;;13.95;;
69523;SDS011;56723;42.694;23.286;2022-07-10T01:49:12;16.98;;;14.77;;
69523;SDS011;56723;42.694;23.286;2022-07-10T01:51:39;15.38;;;13.82;;
69523;SDS011;56723;42.694;23.286;2022-07-10T01:54:07;16.42;;;14.73;;
69523;SDS011;56723;42.694;23.286;2022-07-10T01:56:34;15.77;;;14.25;;
69523;SDS011;56723;42.694;23.286;2022-07-10T01:59:01;15.90;;;14.30;;
69523;SDS011;56723;42.694;23.286;2022-07-10T02:01:30;15.70;;;14.20;;
69523;SDS011;56723;42.694;23.286;2022-07-10T02:03:58;15.10;;;13.60;;
69523;SDS011;56723;42.694;23.286;2022-07-10T02:06:43;13.65;;;12.35;;
69523;SDS011;56723;42.694;23.286;2022-07-10T02:09:11;14.70;;;13.20;;
69523;SDS011;56723;42.694;23.286;2022-07-10T02:11:38;15.07;;;13.63;;
69523;SDS011;56723;42.694;23.286;2022-07-10T02:14:05;15.50;;;14.10;;
69523;SDS011;56723;42.694;23.286;2022-07-10T02:16:32;17.08;;;15.30;;
69523;SDS011;56723;42.694;23.286;2022-07-10T02:18:59;14.80;;;13.40;;
69523;SDS011;56723;42.694;23.286;2022-07-10T02:21:26;16.48;;;14.65;;
69523;SDS011;56723;42.694;23.286;2022-07-10T02:23:53;16.00;;;14.50;;
69523;SDS011;56723;42.694;23.286;2022-07-10T02:26:20;16.30;;;14.60;;
69523;SDS011;56723;42.694;23.286;2022-07-10T02:28:47;16.27;;;14.35;;
69523;SDS011;56723;42.694;23.286;2022-07-10T02:31:14;15.88;;;14.25;;
69523;SDS011;56723;42.694;23.286;2022-07-10T02:33:41;16.10;;;14.63;;
69523;SDS011;56723;42.694;23.286;2022-07-10T02:36:08;17.73;;;15.93;;
69523;SDS011;56723;42.694;23.286;2022-07-10T02:38:35;16.67;;;14.18;;
69523;SDS011;56723;42.694;23.286;2022-07-10T02:41:02;17.48;;;14.50;;
69523;SDS011;56723;42.694;23.286;2022-07-10T02:43:29;16.45;;;14.70;;
69523;SDS011;56723;42.694;23.286;2022-07-10T02:45:56;22.05;;;17.30;;
69523;SDS011;56723;42.694;23.286;2022-07-10T02:48:23;19.75;;;17.63;;
69523;SDS011;56723;42.694;23.286;2022-07-10T02:50:51;23.45;;;20.88;;
69523;SDS011;56723;42.694;23.286;2022-07-10T02:53:18;18.63;;;16.92;;
69523;SDS011;56723;42.694;23.286;2022-07-10T02:55:46;18.17;;;16.48;;
69523;SDS011;56723;42.694;23.286;2022-07-10T02:58:13;18.33;;;16.05;;
69523;SDS011;56723;42.694;23.286;2022-07-10T03:00:41;15.45;;;13.95;;
69523;SDS011;56723;42.694;23.286;2022-07-10T03:03:09;16.95;;;15.30;;
69523;SDS011;56723;42.694;23.286;2022-07-10T03:05:36;14.65;;;13.15;;
69523;SDS011;56723;42.694;23.286;2022-07-10T03:08:03;14.27;;;12.88;;
69523;SDS011;56723;42.694;23.286;2022-07-10T03:10:30;14.20;;;12.82;;
69523;SDS011;56723;42.694;23.286;2022-07-10T03:12:57;15.20;;;12.70;;
69523;SDS011;56723;42.694;23.286;2022-07-10T03:15:24;13.63;;;12.23;;
69523;SDS011;56723;42.694;23.286;2022-07-10T03:17:51;14.07;;;12.65;;
69523;SDS011;56723;42.694;23.286;2022-07-10T03:20:18;13.43;;;12.15;;
69523;SDS011;56723;42.694;23.286;2022-07-10T03:22:45;14.48;;;13.07;;
69523;SDS011;56723;42.694;23.286;2022-07-10T03:25:12;15.20;;;13.52;;
69523;SDS011;56723;42.694;23.286;2022-07-10T03:27:40;14.27;;;12.88;;
69523;SDS011;56723;42.694;23.286;2022-07-10T03:30:07;14.82;;;13.15;;
69523;SDS011;56723;42.694;23.286;2022-07-10T03:32:35;14.10;;;12.80;;
69523;SDS011;56723;42.694;23.286;2022-07-10T03:35:02;13.43;;;12.02;;
69523;SDS011;56723;42.694;23.286;2022-07-10T03:37:29;15.95;;;13.25;;
69523;SDS011;56723;42.694;23.286;2022-07-10T03:39:56;14.35;;;12.93;;
69523;SDS011;56723;42.694;23.286;2022-07-10T03:42:23;13.30;;;12.00;;
69523;SDS011;56723;42.694;23.286;2022-07-10T03:44:50;14.07;;;12.77;;
69523;SDS011;56723;42.694;23.286;2022-07-10T03:47:17;14.27;;;12.93;;
69523;SDS011;56723;42.694;23.286;2022-07-10T03:49:44;13.73;;;12.52;;
69523;SDS011;56723;42.694;23.286;2022-07-10T03:52:11;12.63;;;11.32;;
69523;SDS011;56723;42.694;23.286;2022-07-10T03:54:38;14.00;;;12.50;;
69523;SDS011;56723;42.694;23.286;2022-07-10T03:57:05;14.88;;;13.57;;
69523;SDS011;56723;42.694;23.286;2022-07-10T03:59:50;15.05;;;12.32;;
69523;SDS011;56723;42.694;23.286;2022-07-10T04:02:17;13.98;;;12.23;;
69523;SDS011;56723;42.694;23.286;2022-07-10T04:04:44;13.52;;;12.32;;
69523;SDS011;56723;42.694;23.286;2022-07-10T04:07:11;14.60;;;13.20;;
69523;SDS011;56723;42.694;23.286;2022-07-10T04:09:39;13.05;;;11.25;;
69523;SDS011;56723;42.694;23.286;2022-07-10T04:12:06;12.48;;;11.35;;
69523;SDS011;56723;42.694;23.286;2022-07-10T04:14:33;13.70;;;12.40;;
69523;SDS011;56723;42.694;23.286;2022-07-10T04:17:00;13.40;;;11.05;;
69523;SDS011;56723;42.694;23.286;2022-07-10T04:19:27;11.45;;;10.27;;
69523;SDS011;56723;42.694;23.286;2022-07-10T04:21:54;14.43;;;12.68;;
69523;SDS011;56723;42.694;23.286;2022-07-10T04:24:21;12.35;;;11.02;;
69523;SDS011;56723;42.694;23.286;2022-07-10T04:26:48;13.52;;;12.23;;
69523;SDS011;56723;42.694;23.286;2022-07-10T04:29:15;12.38;;;11.00;;
69523;SDS011;56723;42.694;23.286;2022-07-10T04:31:43;13.52;;;12.32;;
69523;SDS011;56723;42.694;23.286;2022-07-10T04:34:10;12.10;;;10.88;;
69523;SDS011;56723;42.694;23.286;2022-07-10T04:36:37;11.57;;;10.38;;
69523;SDS011;56723;42.694;23.286;2022-07-10T04:39:04;13.00;;;11.63;;
69523;SDS011;56723;42.694;23.286;2022-07-10T04:41:31;12.63;;;11.25;;
69523;SDS011;56723;42.694;23.286;2022-07-10T04:43:58;10.15;;;9.25;;
69523;SDS011;56723;42.694;23.286;2022-07-10T04:46:25;12.82;;;9.65;;
69523;SDS011;56723;42.694;23.286;2022-07-10T04:48:51;10.77;;;9.82;;
69523;SDS011;56723;42.694;23.286;2022-07-10T04:51:18;10.40;;;9.27;;
69523;SDS011;56723;42.694;23.286;2022-07-10T04:53:45;10.02;;;9.13;;
69523;SDS011;56723;42.694;23.286;2022-07-10T04:56:13;10.43;;;9.48;;
69523;SDS011;56723;42.694;23.286;2022-07-10T04:58:39;11.13;;;10.02;;
69523;SDS011;56723;42.694;23.286;2022-07-10T05:01:08;10.48;;;9.13;;
69523;SDS011;56723;42.694;23.286;2022-07-10T05:03:35;10.57;;;9.57;;
69523;SDS011;56723;42.694;23.286;2022-07-10T05:06:02;10.55;;;9.55;;
69523;SDS011;56723;42.694;23.286;2022-07-10T05:08:29;10.57;;;9.57;;
69523;SDS011;56723;42.694;23.286;2022-07-10T05:10:56;10.90;;;9.90;;
69523;SDS011;56723;42.694;23.286;2022-07-10T05:13:23;10.07;;;9.27;;
69523;SDS011;56723;42.694;23.286;2022-07-10T05:15:50;10.07;;;9.07;;
69523;SDS011;56723;42.694;23.286;2022-07-10T05:18:17;10.18;;;9.18;;
69523;SDS011;56723;42.694;23.286;2022-07-10T05:20:44;9.05;;;7.63;;
69523;SDS011;56723;42.694;23.286;2022-07-10T05:23:14;10.50;;;9.40;;
69523;SDS011;56723;42.694;23.286;2022-07-10T05:25:42;9.85;;;8.95;;
69523;SDS011;56723;42.694;23.286;2022-07-10T05:28:09;11.23;;;10.02;;
69523;SDS011;56723;42.694;23.286;2022-07-10T05:30:36;9.75;;;8.82;;
69523;SDS011;56723;42.694;23.286;2022-07-10T05:33:03;9.57;;;8.68;;
69523;SDS011;56723;42.694;23.286;2022-07-10T05:35:30;10.68;;;9.63;;
69523;SDS011;56723;42.694;23.286;2022-07-10T05:37:57;10.73;;;9.30;;
69523;SDS011;56723;42.694;23.286;2022-07-10T05:40:24;8.70;;;7.82;;
69523;SDS011;56723;42.694;23.286;2022-07-10T05:42:51;9.00;;;7.65;;
69523;SDS011;56723;42.694;23.286;2022-07-10T05:45:18;8.10;;;7.30;;
69523;SDS011;56723;42.694;23.286;2022-07-10T05:47:45;7.65;;;7.05;;
69523;SDS011;56723;42.694;23.286;2022-07-10T05:50:12;8.18;;;6.57;;
69523;SDS011;56723;42.694;23.286;2022-07-10T05:52:39;9.25;;;6.55;;
69523;SDS011;56723;42.694;23.286;2022-07-10T05:55:07;6.43;;;5.93;;
69523;SDS011;56723;42.694;23.286;2022-07-10T05:57:34;6.57;;;5.72;;
69523;SDS011;56723;42.694;23.286;2022-07-10T06:00:06;6.85;;;6.25;;
69523;SDS011;56723;42.694;23.286;2022-07-10T06:02:37;5.72;;;5.03;;
69523;SDS011;56723;42.694;23.286;2022-07-10T06:05:04;6.03;;;4.57;;
69523;SDS011;56723;42.694;23.286;2022-07-10T06:07:32;7.93;;;5.15;;
69523;SDS011;56723;42.694;23.286;2022-07-10T06:10:00;6.80;;;5.60;;
69523;SDS011;56723;42.694;23.286;2022-07-10T06:12:29;6.70;;;5.32;;
69523;SDS011;56723;42.694;23.286;2022-07-10T06:14:57;6.13;;;5.10;;
69523;SDS011;56723;42.694;23.286;2022-07-10T06:17:24;5.30;;;4.78;;
69523;SDS011;56723;42.694;23.286;2022-07-10T06:19:51;6.22;;;5.40;;
69523;SDS011;56723;42.694;23.286;2022-07-10T06:22:18;6.10;;;5.40;;
69523;SDS011;56723;42.694;23.286;2022-07-10T06:24:57;8.77;;;5.00;;
69523;SDS011;56723;42.694;23.286;2022-07-10T06:27:29;5.85;;;5.28;;
69523;SDS011;56723;42.694;23.286;2022-07-10T06:29:56;6.05;;;4.97;;
69523;SDS011;56723;42.694;23.286;2022-07-10T06:32:24;8.50;;;5.65;;
69523;SDS011;56723;42.694;23.286;2022-07-10T06:34:52;7.78;;;5.22;;
69523;SDS011;56723;42.694;23.286;2022-07-10T06:37:20;5.72;;;5.03;;
69523;SDS011;56723;42.694;23.286;2022-07-10T06:39:47;5.57;;;4.90;;
69523;SDS011;56723;42.694;23.286;2022-07-10T06:42:14;4.97;;;4.32;;
69523;SDS011;56723;42.694;23.286;2022-07-10T06:44:46;10.02;;;5.18;;
69523;SDS011;56723;42.694;23.286;2022-07-10T06:47:14;4.28;;;3.88;;
69523;SDS011;56723;42.694;23.286;2022-07-10T06:50:02;6.27;;;4.47;;
69523;SDS011;56723;42.694;23.286;2022-07-10T06:52:31;4.38;;;3.90;;
69523;SDS011;56723;42.694;23.286;2022-07-10T06:57:27;4.93;;;3.67;;
69523;SDS011;56723;42.694;23.286;2022-07-10T06:59:55;5.10;;;4.10;;
69523;SDS011;56723;42.694;23.286;2022-07-10T07:02:22;7.35;;;3.95;;
69523;SDS011;56723;42.694;23.286;2022-07-10T07:04:49;5.88;;;3.03;;
69523;SDS011;56723;42.694;23.286;2022-07-10T07:07:16;4.43;;;3.67;;
69523;SDS011;56723;42.694;23.286;2022-07-10T07:09:50;4.93;;;3.35;;
69523;SDS011;56723;42.694;23.286;2022-07-10T07:12:17;4.97;;;4.60;;
69523;SDS011;56723;42.694;23.286;2022-07-10T07:14:44;5.43;;;4.35;;
69523;SDS011;56723;42.694;23.286;2022-07-10T07:17:11;9.27;;;4.65;;
69523;SDS011;56723;42.694;23.286;2022-07-10T07:19:41;8.90;;;4.95;;
69523;SDS011;56723;42.694;23.286;2022-07-10T07:22:28;5.00;;;3.75;;
69523;SDS011;56723;42.694;23.286;2022-07-10T07:25:27;5.10;;;3.47;;
69523;SDS011;56723;42.694;23.286;2022-07-10T07:27:54;3.85;;;3.28;;
69523;SDS011;56723;42.694;23.286;2022-07-10T07:30:21;3.67;;;3.35;;
69523;SDS011;56723;42.694;23.286;2022-07-10T07:32:48;5.88;;;3.60;;
69523;SDS011;56723;42.694;23.286;2022-07-10T07:35:15;7.20;;;3.10;;
69523;SDS011;56723;42.694;23.286;2022-07-10T07:37:43;5.68;;;3.15;;
69523;SDS011;56723;42.694;23.286;2022-07-10T07:40:14;5.22;;;2.88;;
69523;SDS011;56723;42.694;23.286;2022-07-10T07:42:46;2.97;;;2.65;;
69523;SDS011;56723;42.694;23.286;2022-07-10T07:45:13;3.38;;;2.40;;
69523;SDS011;56723;42.694;23.286;2022-07-10T07:50:18;3.65;;;2.42;;
69523;SDS011;56723;42.694;23.286;2022-07-10T07:52:48;2.88;;;2.63;;
69523;SDS011;56723;42.694;23.286;2022-07-10T07:55:16;4.30;;;2.10;;
69523;SDS011;56723;42.694;23.286;2022-07-10T07:57:44;7.32;;;2.80;;
69523;SDS011;56723;42.694;23.286;2022-07-10T08:00:12;4.05;;;2.08;;
69523;SDS011;56723;42.694;23.286;2022-07-10T08:02:40;2.90;;;1.88;;
69523;SDS011;56723;42.694;23.286;2022-07-10T08:05:07;4.50;;;1.52;;
69523;SDS011;56723;42.694;23.286;2022-07-10T08:07:42;2.80;;;1.67;;
69523;SDS011;56723;42.694;23.286;2022-07-10T08:10:15;2.72;;;1.50;;
69523;SDS011;56723;42.694;23.286;2022-07-10T08:12:44;5.22;;;2.30;;
69523;SDS011;56723;42.694;23.286;2022-07-10T08:15:15;2.78;;;1.70;;
69523;SDS011;56723;42.694;23.286;2022-07-10T08:17:47;3.53;;;1.75;;
69523;SDS011;56723;42.694;23.286;2022-07-10T08:20:16;2.20;;;2.00;;
69523;SDS011;56723;42.694;23.286;2022-07-10T08:22:44;2.58;;;1.60;;
69523;SDS011;56723;42.694;23.286;2022-07-10T08:25:11;3.95;;;2.28;;
69523;SDS011;56723;42.694;23.286;2022-07-10T08:27:39;3.35;;;1.67;;
69523;SDS011;56723;42.694;23.286;2022-07-10T08:30:06;2.30;;;1.70;;
69523;SDS011;56723;42.694;23.286;2022-07-10T08:32:38;1.60;;;1.40;;
69523;SDS011;56723;42.694;23.286;2022-07-10T08:35:07;4.80;;;2.03;;
69523;SDS011;56723;42.694;23.286;2022-07-10T08:37:41;4.40;;;1.60;;
69523;SDS011;56723;42.694;23.286;2022-07-10T08:40:09;2.88;;;1.50;;
69523;SDS011;56723;42.694;23.286;2022-07-10T08:42:43;2.63;;;1.60;;
69523;SDS011;56723;42.694;23.286;2022-07-10T08:45:11;2.53;;;1.70;;
69523;SDS011;56723;42.694;23.286;2022-07-10T08:47:39;2.78;;;1.75;;
69523;SDS011;56723;42.694;23.286;2022-07-10T08:50:18;4.68;;;1.67;;
69523;SDS011;56723;42.694;23.286;2022-07-10T08:52:52;3.90;;;1.60;;
69523;SDS011;56723;42.694;23.286;2022-07-10T08:55:38;4.55;;;1.90;;
69523;SDS011;56723;42.694;23.286;2022-07-10T08:58:07;3.72;;;1.48;;
69523;SDS011;56723;42.694;23.286;2022-07-10T09:00:35;4.50;;;1.67;;
69523;SDS011;56723;42.694;23.286;2022-07-10T09:03:02;3.38;;;1.38;;
69523;SDS011;56723;42.694;23.286;2022-07-10T09:05:29;2.03;;;1.17;;
69523;SDS011;56723;42.694;23.286;2022-07-10T09:07:56;2.95;;;1.50;;
69523;SDS011;56723;42.694;23.286;2022-07-10T09:10:25;3.15;;;1.17;;
69523;SDS011;56723;42.694;23.286;2022-07-10T09:12:57;3.65;;;1.85;;
69523;SDS011;56723;42.694;23.286;2022-07-10T09:15:26;3.42;;;1.83;;
69523;SDS011;56723;42.694;23.286;2022-07-10T09:18:00;3.20;;;1.25;;
69523;SDS011;56723;42.694;23.286;2022-07-10T09:23:08;3.50;;;1.40;;
69523;SDS011;56723;42.694;23.286;2022-07-10T09:25:36;2.67;;;1.70;;
69523;SDS011;56723;42.694;23.286;2022-07-10T09:28:03;3.75;;;1.13;;
69523;SDS011;56723;42.694;23.286;2022-07-10T09:30:37;3.75;;;1.15;;
69523;SDS011;56723;42.694;23.286;2022-07-10T09:33:24;2.47;;;1.20;;
69523;SDS011;56723;42.694;23.286;2022-07-10T09:41:21;3.38;;;1.00;;
69523;SDS011;56723;42.694;23.286;2022-07-10T09:46:25;4.65;;;1.30;;
69523;SDS011;56723;42.694;23.286;2022-07-10T09:49:13;2.58;;;1.00;;
69523;SDS011;56723;42.694;23.286;2022-07-10T09:51:42;1.90;;;1.05;;
69523;SDS011;56723;42.694;23.286;2022-07-10T09:54:15;1.92;;;1.00;;
69523;SDS011;56723;42.694;23.286;2022-07-10T09:56:44;1.60;;;0.82;;
69523;SDS011;56723;42.694;23.286;2022-07-10T09:59:20;3.20;;;1.00;;
69523;SDS011;56723;42.694;23.286;2022-07-10T10:01:48;1.70;;;1.02;;
69523;SDS011;56723;42.694;23.286;2022-07-10T10:04:20;2.40;;;0.68;;
69523;SDS011;56723;42.694;23.286;2022-07-10T10:06:51;3.03;;;1.10;;
69523;SDS011;56723;42.694;23.286;2022-07-10T10:09:26;2.17;;;0.85;;
69523;SDS011;56723;42.694;23.286;2022-07-10T10:12:05;1.83;;;1.23;;
69523;SDS011;56723;42.694;23.286;2022-07-10T10:14:38;3.35;;;1.10;;
69523;SDS011;56723;42.694;23.286;2022-07-10T10:17:06;1.85;;;0.77;;
69523;SDS011;56723;42.694;23.286;2022-07-10T10:19:35;2.70;;;0.70;;
69523;SDS011;56723;42.694;23.286;2022-07-10T10:22:23;6.68;;;0.98;;
69523;SDS011;56723;42.694;23.286;2022-07-10T10:24:52;2.90;;;0.80;;
69523;SDS011;56723;42.694;23.286;2022-07-10T10:27:20;2.60;;;1.33;;
69523;SDS011;56723;42.694;23.286;2022-07-10T10:29:49;2.78;;;1.00;;
69523;SDS011;56723;42.694;23.286;2022-07-10T10:32:18;1.88;;;1.20;;
69523;SDS011;56723;42.694;23.286;2022-07-10T10:34:46;3.78;;;1.30;;
69523;SDS011;56723;42.694;23.286;2022-07-10T10:37:38;4.25;;;1.08;;
69523;SDS011;56723;42.694;23.286;2022-07-10T10:40:11;2.55;;;1.13;;
69523;SDS011;56723;42.694;23.286;2022-07-10T10:42:58;3.08;;;1.10;;
69523;SDS011;56723;42.694;23.286;2022-07-10T10:45:42;2.20;;;1.58;;
69523;SDS011;56723;42.694;23.286;2022-07-10T10:48:09;1.30;;;0.88;;
69523;SDS011;56723;42.694;23.286;2022-07-10T10:50:58;2.13;;;0.60;;
69523;SDS011;56723;42.694;23.286;2022-07-10T10:53:28;1.80;;;0.80;;
69523;SDS011;56723;42.694;23.286;2022-07-10T11:06:38;1.52;;;0.85;;
69523;SDS011;56723;42.694;23.286;2022-07-10T11:09:24;4.20;;;0.70;;
69523;SDS011;56723;42.694;23.286;2022-07-10T11:14:34;3.50;;;0.80;;
69523;SDS011;56723;42.694;23.286;2022-07-10T11:17:03;4.25;;;0.82;;
69523;SDS011;56723;42.694;23.286;2022-07-10T11:19:31;3.33;;;0.98;;
69523;SDS011;56723;42.694;23.286;2022-07-10T11:25:31;1.55;;;0.75;;
69523;SDS011;56723;42.694;23.286;2022-07-10T11:28:05;2.63;;;0.88;;
69523;SDS011;56723;42.694;23.286;2022-07-10T11:30:46;3.42;;;0.82;;
69523;SDS011;56723;42.694;23.286;2022-07-10T11:33:16;3.03;;;0.75;;
69523;SDS011;56723;42.694;23.286;2022-07-10T11:35:45;1.65;;;0.98;;
69523;SDS011;56723;42.694;23.286;2022-07-10T11:38:20;2.88;;;0.68;;
69523;SDS011;56723;42.694;23.286;2022-07-10T11:40:51;3.67;;;0.73;;
69523;SDS011;56723;42.694;23.286;2022-07-10T11:43:21;2.03;;;0.50;;
69523;SDS011;56723;42.694;23.286;2022-07-10T11:45:51;4.53;;;0.60;;
69523;SDS011;56723;42.694;23.286;2022-07-10T11:48:21;2.10;;;0.57;;
69523;SDS011;56723;42.694;23.286;2022-07-10T11:50:50;6.03;;;0.60;;
69523;SDS011;56723;42.694;23.286;2022-07-10T11:53:26;2.30;;;0.60;;
69523;SDS011;56723;42.694;23.286;2022-07-10T11:55:54;1.77;;;0.52;;
69523;SDS011;56723;42.694;23.286;2022-07-10T11:58:22;2.10;;;0.68;;
69523;SDS011;56723;42.694;23.286;2022-07-10T12:00:59;1.73;;;0.77;;
69523;SDS011;56723;42.694;23.286;2022-07-10T12:03:28;1.88;;;0.60;;
69523;SDS011;56723;42.694;23.286;2022-07-10T12:06:00;2.67;;;0.50;;
69523;SDS011;56723;42.694;23.286;2022-07-10T12:08:41;1.65;;;0.60;;
69523;SDS011;56723;42.694;23.286;2022-07-10T12:11:16;1.30;;;0.50;;
69523;SDS011;56723;42.694;23.286;2022-07-10T12:13:45;1.30;;;0.60;;
69523;SDS011;56723;42.694;23.286;2022-07-10T12:16:14;1.25;;;0.40;;
69523;SDS011;56723;42.694;23.286;2022-07-10T12:18:42;2.95;;;0.40;;
69523;SDS011;56723;42.694;23.286;2022-07-10T12:21:11;3.00;;;0.70;;
69523;SDS011;56723;42.694;23.286;2022-07-10T12:23:39;1.58;;;0.60;;
69523;SDS011;56723;42.694;23.286;2022-07-10T12:26:08;2.22;;;0.60;;
69523;SDS011;56723;42.694;23.286;2022-07-10T12:28:50;2.92;;;0.60;;
69523;SDS011;56723;42.694;23.286;2022-07-10T12:31:24;3.38;;;0.45;;
69523;SDS011;56723;42.694;23.286;2022-07-10T12:33:56;1.73;;;0.47;;
69523;SDS011;56723;42.694;23.286;2022-07-10T12:36:26;2.58;;;0.32;;
69523;SDS011;56723;42.694;23.286;2022-07-10T12:39:08;1.88;;;0.47;;
69523;SDS011;56723;42.694;23.286;2022-07-10T12:41:35;1.95;;;0.50;;
69523;SDS011;56723;42.694;23.286;2022-07-10T12:44:41;1.33;;;0.20;;
69523;SDS011;56723;42.694;23.286;2022-07-10T12:47:11;2.45;;;0.30;;
69523;SDS011;56723;42.694;23.286;2022-07-10T12:52:26;3.03;;;0.55;;
69523;SDS011;56723;42.694;23.286;2022-07-10T13:00:21;2.53;;;0.25;;
69523;SDS011;56723;42.694;23.286;2022-07-10T13:03:10;1.67;;;0.20;;
69523;SDS011;56723;42.694;23.286;2022-07-10T13:05:44;1.48;;;0.20;;
69523;SDS011;56723;42.694;23.286;2022-07-10T13:08:12;1.50;;;0.20;;
69523;SDS011;56723;42.694;23.286;2022-07-10T13:10:52;3.33;;;0.57;;
69523;SDS011;56723;42.694;23.286;2022-07-10T13:13:20;1.60;;;0.20;;
69523;SDS011;56723;42.694;23.286;2022-07-10T13:15:48;2.33;;;0.20;;
69523;SDS011;56723;42.694;23.286;2022-07-10T13:18:26;2.05;;;0.20;;
69523;SDS011;56723;42.694;23.286;2022-07-10T13:20:57;0.82;;;0.22;;
69523;SDS011;56723;42.694;23.286;2022-07-10T13:23:27;1.75;;;0.30;;
69523;SDS011;56723;42.694;23.286;2022-07-10T13:25:55;2.17;;;0.25;;
69523;SDS011;56723;42.694;23.286;2022-07-10T13:28:22;1.90;;;0.27;;
69523;SDS011;56723;42.694;23.286;2022-07-10T13:30:49;1.17;;;0.30;;
69523;SDS011;56723;42.694;23.286;2022-07-10T13:33:17;2.17;;;0.40;;
69523;SDS011;56723;42.694;23.286;2022-07-10T13:35:44;1.15;;;0.20;;
69523;SDS011;56723;42.694;23.286;2022-07-10T13:38:11;2.22;;;0.30;;
69523;SDS011;56723;42.694;23.286;2022-07-10T13:40:43;2.97;;;0.50;;
69523;SDS011;56723;42.694;23.286;2022-07-10T13:43:11;3.25;;;0.32;;
69523;SDS011;56723;42.694;23.286;2022-07-10T13:45:47;1.60;;;0.20;;
69523;SDS011;56723;42.694;23.286;2022-07-10T13:48:15;2.60;;;0.38;;
69523;SDS011;56723;42.694;23.286;2022-07-10T13:50:43;3.13;;;0.40;;
69523;SDS011;56723;42.694;23.286;2022-07-10T13:53:14;3.00;;;0.35;;
69523;SDS011;56723;42.694;23.286;2022-07-10T13:55:41;1.60;;;0.20;;
69523;SDS011;56723;42.694;23.286;2022-07-10T13:58:08;1.25;;;0.20;;
69523;SDS011;56723;42.694;23.286;2022-07-10T14:00:36;1.83;;;0.20;;
69523;SDS011;56723;42.694;23.286;2022-07-10T14:03:04;2.03;;;0.20;;
69523;SDS011;56723;42.694;23.286;2022-07-10T14:05:31;2.20;;;0.20;;
69523;SDS011;56723;42.694;23.286;2022-07-10T14:08:01;3.40;;;0.40;;
69523;SDS011;56723;42.694;23.286;2022-07-10T14:10:29;1.80;;;0.20;;
69523;SDS011;56723;42.694;23.286;2022-07-10T14:12:57;2.17;;;0.40;;
69523;SDS011;56723;42.694;23.286;2022-07-10T14:15:25;1.98;;;0.20;;
69523;SDS011;56723;42.694;23.286;2022-07-10T14:17:52;1.52;;;0.30;;
69523;SDS011;56723;42.694;23.286;2022-07-10T14:20:19;1.00;;;0.20;;
69523;SDS011;56723;42.694;23.286;2022-07-10T14:22:46;0.60;;;0.20;;
69523;SDS011;56723;42.694;23.286;2022-07-10T14:25:14;2.15;;;0.38;;
69523;SDS011;56723;42.694;23.286;2022-07-10T14:27:41;1.63;;;0.35;;
69523;SDS011;56723;42.694;23.286;2022-07-10T14:30:08;1.75;;;0.30;;
69523;SDS011;56723;42.694;23.286;2022-07-10T14:32:36;2.65;;;0.47;;
69523;SDS011;56723;42.694;23.286;2022-07-10T14:35:03;1.08;;;0.22;;
69523;SDS011;56723;42.694;23.286;2022-07-10T14:37:30;0.80;;;0.30;;
69523;SDS011;56723;42.694;23.286;2022-07-10T14:39:58;1.00;;;0.22;;
69523;SDS011;56723;42.694;23.286;2022-07-10T14:42:25;0.77;;;0.28;;
69523;SDS011;56723;42.694;23.286;2022-07-10T14:44:52;4.00;;;0.38;;
69523;SDS011;56723;42.694;23.286;2022-07-10T14:47:19;3.60;;;0.28;;
69523;SDS011;56723;42.694;23.286;2022-07-10T14:49:46;1.20;;;0.32;;
69523;SDS011;56723;42.694;23.286;2022-07-10T14:52:13;1.63;;;0.20;;
69523;SDS011;56723;42.694;23.286;2022-07-10T14:54:41;1.52;;;0.38;;
69523;SDS011;56723;42.694;23.286;2022-07-10T14:57:08;2.25;;;0.32;;
69523;SDS011;56723;42.694;23.286;2022-07-10T14:59:35;4.72;;;0.30;;
69523;SDS011;56723;42.694;23.286;2022-07-10T15:02:02;1.15;;;0.30;;
69523;SDS011;56723;42.694;23.286;2022-07-10T15:04:30;1.20;;;0.30;;
69523;SDS011;56723;42.694;23.286;2022-07-10T15:06:57;1.92;;;0.40;;
69523;SDS011;56723;42.694;23.286;2022-07-10T15:09:24;2.05;;;0.22;;
69523;SDS011;56723;42.694;23.286;2022-07-10T15:11:51;2.85;;;0.45;;
69523;SDS011;56723;42.694;23.286;2022-07-10T15:14:19;1.30;;;0.20;;
69523;SDS011;56723;42.694;23.286;2022-07-10T15:16:46;6.47;;;0.30;;
69523;SDS011;56723;42.694;23.286;2022-07-10T15:19:13;3.65;;;0.47;;
69523;SDS011;56723;42.694;23.286;2022-07-10T15:21:40;1.70;;;0.20;;